createdAt,value
2018-10-05T00:01:26.860Z,6.60
2018-10-05T00:04:30.856Z,6.60
2018-10-05T00:07:34.889Z,6.60
2018-10-05T00:10:38.922Z,6.50
2018-10-05T00:13:42.916Z,6.50
2018-10-05T00:16:46.965Z,6.40
2018-10-05T00:19:51.484Z,6.40
2018-10-05T00:22:55.483Z,6.40
2018-10-05T00:25:59.544Z,6.40
2018-10-05T00:29:03.625Z,6.30
2018-10-05T00:32:07.752Z,6.20
2018-10-05T00:35:11.882Z,6.20
2018-10-05T00:38:15.883Z,6.10
2018-10-05T00:41:19.948Z,6.10
2018-10-05T00:44:23.969Z,6.00
2018-10-05T00:47:28.004Z,6.00
2018-10-05T00:50:32.319Z,6.10
2018-10-05T00:53:37.406Z,6.10
2018-10-05T00:56:41.318Z,6.00
2018-10-05T00:59:45.364Z,6.00
2018-10-05T01:02:49.407Z,5.90
2018-10-05T01:05:53.450Z,5.80
2018-10-05T01:08:57.630Z,5.80
2018-10-05T01:12:01.791Z,5.70
2018-10-05T01:15:05.796Z,5.70
2018-10-05T01:18:09.854Z,5.60
2018-10-05T01:21:13.882Z,5.70
2018-10-05T01:24:17.956Z,5.60
2018-10-05T01:27:22.018Z,5.70
2018-10-05T01:30:26.052Z,5.60
2018-10-05T01:33:30.063Z,5.50
2018-10-05T01:36:34.160Z,5.50
2018-10-05T01:39:38.178Z,5.50
2018-10-05T01:42:42.274Z,5.50
2018-10-05T01:45:47.162Z,5.50
2018-10-05T01:48:51.211Z,5.50
2018-10-05T01:51:55.220Z,5.50
2018-10-05T01:54:59.228Z,5.40
2018-10-05T01:58:03.280Z,5.40
2018-10-05T02:01:07.446Z,5.30
2018-10-05T02:04:11.555Z,5.20
2018-10-05T02:07:15.570Z,5.20
2018-10-05T02:10:20.189Z,5.10
2018-10-05T02:13:24.189Z,5.10
2018-10-05T02:16:28.207Z,5.10
2018-10-05T02:19:32.448Z,5.10
2018-10-05T02:22:36.483Z,5.00
2018-10-05T02:25:40.502Z,5.00
2018-10-05T02:28:44.529Z,4.90
2018-10-05T02:31:48.574Z,4.90
2018-10-05T02:34:52.850Z,4.90
2018-10-05T02:37:57.012Z,4.90
2018-10-05T02:41:01.056Z,4.90
2018-10-05T02:44:05.532Z,4.90
2018-10-05T02:47:09.611Z,4.90
2018-10-05T02:50:13.615Z,4.90
2018-10-05T02:53:17.811Z,4.90
2018-10-05T02:56:21.827Z,4.80
2018-10-05T02:59:25.842Z,4.80
2018-10-05T03:02:35.478Z,4.70
2018-10-05T03:05:39.555Z,4.70
2018-10-05T03:08:43.689Z,4.70
2018-10-05T03:11:47.799Z,4.70
2018-10-05T03:14:51.849Z,4.70
2018-10-05T03:17:55.848Z,4.60
2018-10-05T03:20:59.902Z,4.60
2018-10-05T03:24:03.969Z,4.60
2018-10-05T03:27:07.963Z,4.60
2018-10-05T03:30:12.259Z,4.60
2018-10-05T03:33:16.239Z,4.60
2018-10-05T03:36:20.253Z,4.70
2018-10-05T03:39:24.325Z,4.80
2018-10-05T03:42:28.479Z,4.80
2018-10-05T03:45:32.591Z,4.80
2018-10-05T03:48:36.640Z,4.90
2018-10-05T03:51:40.712Z,5.00
2018-10-05T03:54:44.746Z,4.90
2018-10-05T03:57:48.778Z,5.00
2018-10-05T04:00:52.778Z,5.00
2018-10-05T04:03:56.892Z,4.90
2018-10-05T04:07:00.918Z,4.90
2018-10-05T04:10:04.981Z,4.90
2018-10-05T04:13:09.027Z,4.90
2018-10-05T04:16:13.081Z,5.00
2018-10-05T04:19:17.223Z,5.10
2018-10-05T04:22:26.762Z,5.10
2018-10-05T04:25:30.830Z,5.00
2018-10-05T04:28:34.909Z,5.00
2018-10-05T04:31:38.990Z,5.00
2018-10-05T04:34:43.162Z,5.00
2018-10-05T04:37:47.278Z,5.00
2018-10-05T04:40:51.405Z,5.10
2018-10-05T04:43:55.478Z,5.00
2018-10-05T04:46:59.527Z,5.00
2018-10-05T04:50:03.625Z,5.10
2018-10-05T04:53:07.918Z,5.00
2018-10-05T04:56:12.173Z,5.00
2018-10-05T04:59:16.207Z,4.90
2018-10-05T05:02:20.247Z,4.90
2018-10-05T05:05:24.290Z,4.90
2018-10-05T05:08:28.369Z,5.00
2018-10-05T05:11:32.374Z,4.90
2018-10-05T05:14:36.466Z,4.90
2018-10-05T05:17:40.478Z,4.80
2018-10-05T05:20:45.178Z,4.80
2018-10-05T05:23:49.233Z,4.80
2018-10-05T05:26:53.342Z,4.80
2018-10-05T05:29:57.429Z,4.80
2018-10-05T05:33:01.436Z,4.80
2018-10-05T05:36:05.538Z,4.90
2018-10-05T05:39:10.261Z,5.00
2018-10-05T05:42:14.306Z,5.20
2018-10-05T05:45:18.397Z,5.20
2018-10-05T05:48:22.444Z,5.20
2018-10-05T05:51:26.499Z,5.10
2018-10-05T05:54:30.906Z,5.00
2018-10-05T05:57:34.858Z,5.30
2018-10-05T06:00:38.921Z,5.40
2018-10-05T06:03:42.969Z,5.50
2018-10-05T06:06:47.127Z,5.40
2018-10-05T06:09:51.193Z,5.20
2018-10-05T06:12:55.247Z,5.20
2018-10-05T06:15:59.382Z,5.50
2018-10-05T06:19:03.412Z,5.70
2018-10-05T06:22:07.552Z,5.50
2018-10-05T06:25:11.702Z,5.50
2018-10-05T06:28:15.698Z,5.50
2018-10-05T06:31:19.777Z,5.70
2018-10-05T06:34:24.054Z,5.90
2018-10-05T06:37:30.539Z,5.80
2018-10-05T06:40:34.609Z,6.00
2018-10-05T06:43:38.602Z,6.00
2018-10-05T06:46:42.678Z,6.10
2018-10-05T06:49:46.659Z,6.00
2018-10-05T06:52:50.716Z,6.20
2018-10-05T06:55:54.820Z,6.20
2018-10-05T06:58:58.832Z,6.40
2018-10-05T07:02:02.876Z,6.40
2018-10-05T07:05:06.943Z,6.30
2018-10-05T07:08:11.005Z,6.10
2018-10-05T07:11:15.093Z,6.10
2018-10-05T07:14:19.209Z,6.10
2018-10-05T07:17:23.765Z,6.30
2018-10-05T07:20:27.790Z,6.40
2018-10-05T07:23:31.794Z,6.40
2018-10-05T07:26:35.985Z,6.40
2018-10-05T07:29:40.439Z,6.40
2018-10-05T07:32:44.753Z,6.50
2018-10-05T07:35:48.808Z,6.60
2018-10-05T07:38:52.858Z,6.60
2018-10-05T07:41:56.910Z,6.60
2018-10-05T07:45:00.950Z,7.10
2018-10-05T07:48:05.060Z,7.20
2018-10-05T07:51:09.188Z,7.20
2018-10-05T07:54:13.259Z,7.50
2018-10-05T07:57:17.370Z,8.00
2018-10-05T08:00:21.456Z,8.40
2018-10-05T08:03:25.492Z,8.80
2018-10-05T08:06:29.810Z,9.00
2018-10-05T08:09:34.033Z,9.10
2018-10-05T08:12:37.985Z,9.20
2018-10-05T08:15:42.021Z,9.40
2018-10-05T08:18:46.104Z,9.40
2018-10-05T08:21:50.171Z,9.80
2018-10-05T08:24:54.178Z,10.10
2018-10-05T08:27:58.396Z,10.30
2018-10-05T08:31:02.395Z,10.20
2018-10-05T08:34:06.538Z,10.40
2018-10-05T08:37:10.642Z,10.60
2018-10-05T08:40:14.752Z,10.80
2018-10-05T08:43:18.733Z,11.10
2018-10-05T08:46:22.953Z,11.00
2018-10-05T08:49:27.048Z,11.20
2018-10-05T08:52:31.536Z,11.20
2018-10-05T08:55:35.617Z,11.70
2018-10-05T08:58:39.768Z,12.10
2018-10-05T09:01:43.852Z,12.50
2018-10-05T09:04:47.894Z,12.80
2018-10-05T09:07:52.219Z,12.80
2018-10-05T09:10:56.889Z,12.80
2018-10-05T09:14:01.055Z,13.50
2018-10-05T09:17:05.155Z,13.90
2018-10-05T09:20:09.327Z,14.30
2018-10-05T09:23:13.491Z,14.40
2018-10-05T09:26:17.595Z,14.90
2018-10-05T09:29:22.253Z,15.00
2018-10-05T09:32:26.442Z,16.10
2018-10-05T09:35:31.608Z,16.80
2018-10-05T09:38:35.783Z,17.30
2018-10-05T09:41:39.893Z,17.30
2018-10-05T09:44:44.037Z,18.70
2018-10-05T09:47:48.109Z,19.80
2018-10-05T09:50:52.175Z,19.00
2018-10-05T09:53:56.310Z,18.60
2018-10-05T09:57:00.447Z,19.40
2018-10-05T10:00:05.112Z,19.80
2018-10-05T10:03:14.394Z,20.10
2018-10-05T10:06:18.529Z,19.90
2018-10-05T10:09:22.562Z,20.10
2018-10-05T10:12:26.594Z,20.30
2018-10-05T10:15:30.691Z,20.40
2018-10-05T10:18:34.708Z,20.40
2018-10-05T10:21:38.768Z,20.80
2018-10-05T10:24:42.893Z,20.80
2018-10-05T10:27:46.942Z,21.80
2018-10-05T10:30:51.033Z,21.70
2018-10-05T10:33:55.036Z,21.80
2018-10-05T10:36:59.078Z,23.00
2018-10-05T10:40:03.277Z,22.40
2018-10-05T10:43:07.677Z,22.00
2018-10-05T10:46:12.108Z,22.30
2018-10-05T10:49:16.238Z,23.00
2018-10-05T10:52:20.478Z,24.00
2018-10-05T10:55:24.559Z,24.10
2018-10-05T10:58:28.570Z,23.50
2018-10-05T11:01:32.687Z,23.40
2018-10-05T11:04:36.815Z,24.90
2018-10-05T11:07:40.796Z,23.60
2018-10-05T11:10:44.877Z,22.70
2018-10-05T11:13:48.923Z,24.10
2018-10-05T11:16:53.010Z,23.20
2018-10-05T11:19:57.042Z,22.20
2018-10-05T11:23:01.202Z,22.00
2018-10-05T11:26:05.362Z,22.10
2018-10-05T11:29:09.387Z,21.80
2018-10-05T11:32:13.478Z,22.60
2018-10-05T11:35:17.522Z,22.40
2018-10-05T11:38:21.566Z,22.00
2018-10-05T11:41:25.718Z,22.10
2018-10-05T11:44:29.750Z,21.90
2018-10-05T11:47:33.806Z,21.40
2018-10-05T11:50:37.893Z,20.70
2018-10-05T11:53:42.052Z,20.00
2018-10-05T11:56:46.101Z,20.10
2018-10-05T11:59:50.160Z,20.10
2018-10-05T12:02:54.187Z,19.50
2018-10-05T12:05:58.234Z,19.40
2018-10-05T12:09:02.267Z,19.50
2018-10-05T12:12:06.302Z,19.70
2018-10-05T12:15:10.484Z,19.70
2018-10-05T12:18:14.500Z,19.60
2018-10-05T12:21:18.626Z,19.40
2018-10-05T12:24:22.799Z,19.20
2018-10-05T12:27:26.849Z,19.10
2018-10-05T12:30:31.060Z,19.20
2018-10-05T12:33:35.569Z,19.30
2018-10-05T12:36:39.607Z,19.20
2018-10-05T12:39:43.607Z,19.30
2018-10-05T12:42:47.654Z,19.40
2018-10-05T12:45:51.694Z,19.50
2018-10-05T12:48:55.817Z,19.70
2018-10-05T12:51:59.862Z,19.70
2018-10-05T12:55:04.136Z,19.70
2018-10-05T12:58:08.234Z,19.70
2018-10-05T13:01:12.283Z,19.80
2018-10-05T13:04:16.407Z,19.90
2018-10-05T13:07:20.422Z,20.10
2018-10-05T13:10:24.443Z,20.20
2018-10-05T13:13:28.515Z,20.20
2018-10-05T13:16:32.578Z,20.20
2018-10-05T13:19:36.709Z,20.20
2018-10-05T13:22:40.809Z,20.20
2018-10-05T13:25:44.942Z,20.30
2018-10-05T13:28:48.979Z,20.30
2018-10-05T13:31:53.030Z,20.40
2018-10-05T13:34:57.118Z,20.50
2018-10-05T13:38:01.199Z,20.50
2018-10-05T13:41:05.237Z,20.50
2018-10-05T13:44:10.152Z,20.50
2018-10-05T13:47:14.222Z,20.50
2018-10-05T13:50:18.290Z,20.50
2018-10-05T13:53:22.367Z,20.50
2018-10-05T13:56:26.401Z,20.60
2018-10-05T13:59:30.454Z,20.50
2018-10-05T14:02:34.537Z,20.50
2018-10-05T14:05:38.551Z,20.50
2018-10-05T14:08:42.773Z,20.50
2018-10-05T14:11:46.970Z,20.50
2018-10-05T14:14:51.052Z,20.50
2018-10-05T14:17:55.096Z,20.50
2018-10-05T14:20:59.200Z,20.50
2018-10-05T14:24:03.865Z,20.40
2018-10-05T14:27:08.663Z,20.30
2018-10-05T14:30:13.032Z,20.40
2018-10-05T14:33:17.343Z,20.50
2018-10-05T14:36:21.417Z,20.50
2018-10-05T14:39:25.441Z,20.50
2018-10-05T14:42:29.505Z,20.50
2018-10-05T14:45:33.666Z,20.50
2018-10-05T14:48:37.792Z,20.40
2018-10-05T14:51:42.587Z,20.40
2018-10-05T14:54:46.797Z,20.40
2018-10-05T14:57:50.874Z,20.30
2018-10-05T15:00:54.894Z,20.30
2018-10-05T15:03:59.014Z,20.30
2018-10-05T15:07:03.161Z,20.20
2018-10-05T15:10:07.246Z,20.20
2018-10-05T15:13:11.332Z,20.20
2018-10-05T15:16:15.343Z,20.20
2018-10-05T15:19:19.447Z,20.10
2018-10-05T15:22:23.625Z,20.20
2018-10-05T15:25:27.917Z,20.10
2018-10-05T15:28:32.197Z,20.00
2018-10-05T15:31:36.401Z,19.90
2018-10-05T15:34:40.466Z,19.90
2018-10-05T15:37:45.275Z,19.90
2018-10-05T15:40:49.539Z,19.80
2018-10-05T15:43:53.587Z,19.80
2018-10-05T15:47:02.786Z,19.70
2018-10-05T15:50:07.362Z,19.70
2018-10-05T15:53:11.513Z,19.60
2018-10-05T15:56:15.563Z,19.50
2018-10-05T15:59:19.613Z,19.40
2018-10-05T16:02:23.693Z,19.40
2018-10-05T16:05:27.872Z,19.30
2018-10-05T16:08:31.826Z,19.20
2018-10-05T16:11:36.112Z,19.10
2018-10-05T16:14:40.266Z,19.00
2018-10-05T16:17:45.468Z,18.80
2018-10-05T16:20:50.469Z,18.70
2018-10-05T16:23:55.079Z,18.50
2018-10-05T16:26:59.122Z,18.40
2018-10-05T16:30:04.043Z,18.20
2018-10-05T16:33:08.158Z,18.10
2018-10-05T16:36:12.249Z,17.90
2018-10-05T16:39:16.261Z,17.80
2018-10-05T16:42:20.356Z,17.60
2018-10-05T16:45:24.527Z,17.30
2018-10-05T16:48:28.591Z,17.20
2018-10-05T16:51:32.733Z,17.00
2018-10-05T16:54:36.775Z,16.80
2018-10-05T16:57:40.869Z,16.50
2018-10-05T17:00:44.982Z,16.40
2018-10-05T17:03:49.133Z,16.20
2018-10-05T17:06:53.274Z,16.00
2018-10-05T17:09:57.286Z,15.90
2018-10-05T17:13:01.441Z,15.70
2018-10-05T17:16:05.626Z,15.50
2018-10-05T17:19:09.910Z,15.30
2018-10-05T17:22:13.954Z,15.20
2018-10-05T17:25:17.995Z,15.00
2018-10-05T17:28:22.073Z,14.80
2018-10-05T17:31:26.137Z,14.70
2018-10-05T17:34:30.179Z,14.40
2018-10-05T17:37:34.341Z,14.10
2018-10-05T17:40:38.352Z,13.80
2018-10-05T17:43:42.429Z,13.70
2018-10-05T17:46:46.487Z,13.60
2018-10-05T17:49:50.532Z,13.50
2018-10-05T17:52:54.652Z,13.50
2018-10-05T17:55:59.123Z,13.40
2018-10-05T17:59:03.224Z,13.30
2018-10-05T18:02:07.303Z,13.20
2018-10-05T18:05:11.350Z,13.10
2018-10-05T18:08:15.430Z,13.00
2018-10-05T18:11:19.617Z,12.80
2018-10-05T18:14:23.708Z,12.70
2018-10-05T18:17:27.736Z,12.60
2018-10-05T18:20:31.723Z,12.40
2018-10-05T18:23:35.795Z,12.30
2018-10-05T18:26:39.932Z,12.20
2018-10-05T18:29:43.950Z,12.10
2018-10-05T18:32:48.104Z,12.10
2018-10-05T18:35:52.239Z,12.00
2018-10-05T18:38:56.311Z,11.90
2018-10-05T18:42:00.529Z,11.70
2018-10-05T18:45:05.156Z,11.60
2018-10-05T18:48:09.294Z,11.50
2018-10-05T18:51:13.595Z,11.40
2018-10-05T18:54:17.697Z,11.30
2018-10-05T18:57:23.144Z,11.20
2018-10-05T19:00:27.293Z,11.10
2018-10-05T19:03:31.323Z,11.00
2018-10-05T19:06:35.474Z,11.00
2018-10-05T19:09:39.554Z,10.90
2018-10-05T19:12:43.600Z,10.80
2018-10-05T19:15:47.699Z,10.70
2018-10-05T19:18:51.929Z,10.70
2018-10-05T19:21:56.020Z,10.60
2018-10-05T19:25:00.220Z,10.50
2018-10-05T19:28:04.291Z,10.60
2018-10-05T19:31:08.727Z,10.50
2018-10-05T19:34:12.910Z,10.40
2018-10-05T19:37:16.962Z,10.40
2018-10-05T19:40:21.420Z,10.30
2018-10-05T19:43:25.537Z,10.10
2018-10-05T19:46:29.705Z,10.10
2018-10-05T19:49:33.779Z,10.10
2018-10-05T19:52:38.596Z,10.00
2018-10-05T19:55:42.761Z,9.90
2018-10-05T19:58:47.017Z,9.90
2018-10-05T20:01:51.208Z,9.80
2018-10-05T20:04:55.301Z,9.80
2018-10-05T20:07:59.482Z,9.70
2018-10-05T20:11:03.642Z,9.70
2018-10-05T20:14:07.701Z,9.60
2018-10-05T20:17:11.903Z,9.60
2018-10-05T20:20:15.986Z,9.60
2018-10-05T20:23:20.724Z,9.50
2018-10-05T20:26:24.860Z,9.50
2018-10-05T20:29:28.998Z,9.40
2018-10-05T20:32:33.091Z,9.30
2018-10-05T20:35:37.211Z,9.20
2018-10-05T20:38:41.356Z,9.10
2018-10-05T20:41:45.349Z,9.00
2018-10-05T20:44:49.448Z,8.90
2018-10-05T20:47:53.473Z,8.90
2018-10-05T20:50:57.511Z,8.90
2018-10-05T20:54:02.469Z,8.90
2018-10-05T20:57:06.152Z,8.90
2018-10-05T21:00:10.212Z,8.80
2018-10-05T21:03:14.256Z,8.70
2018-10-05T21:06:18.303Z,8.60
2018-10-05T21:09:22.343Z,8.60
2018-10-05T21:12:26.364Z,8.60
2018-10-05T21:15:30.677Z,8.60
2018-10-05T21:18:34.704Z,8.60
2018-10-05T21:21:38.733Z,8.50
2018-10-05T21:24:42.873Z,8.40
2018-10-05T21:27:46.974Z,8.40
2018-10-05T21:30:51.026Z,8.30
2018-10-05T21:33:55.072Z,8.20
2018-10-05T21:36:59.317Z,8.20
2018-10-05T21:40:03.436Z,8.20
2018-10-05T21:43:07.555Z,8.20
2018-10-05T21:46:11.882Z,8.10
2018-10-05T21:49:15.920Z,8.10
2018-10-05T21:52:19.939Z,8.00
2018-10-05T21:55:23.987Z,7.90
2018-10-05T21:58:28.029Z,7.90
2018-10-05T22:01:32.140Z,8.00
2018-10-05T22:04:36.776Z,8.00
2018-10-05T22:07:41.216Z,7.90
2018-10-05T22:10:45.249Z,8.00
2018-10-05T22:13:49.293Z,7.90
2018-10-05T22:16:53.320Z,7.70
2018-10-05T22:19:57.643Z,7.60
2018-10-05T22:23:01.685Z,7.60
2018-10-05T22:26:06.025Z,7.70
2018-10-05T22:29:10.060Z,7.70
2018-10-05T22:32:14.625Z,7.70
2018-10-05T22:35:18.642Z,7.70
2018-10-05T22:38:22.727Z,7.80
2018-10-05T22:41:26.768Z,7.80
2018-10-05T22:44:30.998Z,7.80
2018-10-05T22:47:35.216Z,7.70
2018-10-05T22:50:39.231Z,7.80
2018-10-05T22:53:43.445Z,7.80
2018-10-05T22:56:47.507Z,7.80
2018-10-05T22:59:51.523Z,7.70
2018-10-05T23:02:55.996Z,7.60
2018-10-05T23:06:00.012Z,7.70
2018-10-05T23:09:05.060Z,7.70
2018-10-05T23:12:09.161Z,7.60
2018-10-05T23:15:13.287Z,7.60
2018-10-05T23:18:17.328Z,7.60
2018-10-05T23:21:21.341Z,7.60
2018-10-05T23:24:25.390Z,7.50
2018-10-05T23:27:29.416Z,7.50
2018-10-05T23:30:33.450Z,7.60
2018-10-05T23:33:37.480Z,7.70
2018-10-05T23:36:41.545Z,7.60
2018-10-05T23:39:45.551Z,7.70
2018-10-05T23:42:49.721Z,7.70
2018-10-05T23:45:53.801Z,7.60
2018-10-05T23:48:57.859Z,7.60
2018-10-05T23:52:40.286Z,7.70
2018-10-05T23:55:44.303Z,7.70
2018-10-05T23:58:48.328Z,7.70
